Time;durP1;ratioP1;P1;durP2;ratioP2;P2;SDS_P1;SDS_P2;PMS_P1;PMS_P2;Temp;Humidity;BMP_temperature;BMP_pressure;BME280_temperature;BME280_humidity;BME280_pressure;Samples;Min_cycle;Max_cycle;Signal;HPM_P1;HPM_P2
2023/09/20 00:01:37;;;;;;;5.35;1.77;;;19.10;98.60;;;;;;6150326;23;20419;-79
2023/09/20 00:04:06;;;;;;;6.05;1.70;;;19.10;98.60;;;;;;6150575;23;20052;-78
2023/09/20 00:06:31;;;;;;;5.63;1.85;;;19.10;98.60;;;;;;6150080;23;20032;-78
2023/09/20 00:08:58;;;;;;;5.13;1.92;;;19.10;98.60;;;;;;6151280;23;20331;-78
2023/09/20 00:11:24;;;;;;;2.92;1.52;;;19.10;98.60;;;;;;6151431;23;20088;-78
2023/09/20 00:13:49;;;;;;;5.47;1.73;;;19.10;98.60;;;;;;6152549;23;20091;-78
2023/09/20 00:16:16;;;;;;;8.27;2.25;;;19.10;98.60;;;;;;6152116;23;20001;-77
2023/09/20 00:18:42;;;;;;;7.95;1.90;;;19.10;98.60;;;;;;6152458;23;19998;-78
2023/09/20 00:21:07;;;;;;;4.97;1.80;;;19.10;98.60;;;;;;6152357;23;19998;-78
2023/09/20 00:23:33;;;;;;;4.85;1.85;;;19.20;98.60;;;;;;6152039;23;20709;-78
2023/09/20 00:26:00;;;;;;;4.32;2.38;;;19.20;98.60;;;;;;6125779;23;20165;-78
2023/09/20 00:28:26;;;;;;;7.28;2.28;;;19.20;98.60;;;;;;6152382;23;20005;-79
2023/09/20 00:30:53;;;;;;;6.30;1.63;;;19.10;98.60;;;;;;6152412;23;20128;-78
2023/09/20 00:33:18;;;;;;;5.50;2.00;;;19.20;98.60;;;;;;6152422;23;20002;-79
2023/09/20 00:35:44;;;;;;;6.45;1.63;;;19.20;98.70;;;;;;6152084;23;20069;-78
2023/09/20 00:38:10;;;;;;;6.90;2.05;;;19.20;98.70;;;;;;6152305;23;20060;-78
2023/09/20 00:40:37;;;;;;;7.50;1.88;;;19.20;98.70;;;;;;6124927;23;20427;-78
2023/09/20 00:43:07;;;;;;;4.05;1.90;;;19.20;98.70;;;;;;6152392;23;20025;-79
2023/09/20 00:45:34;;;;;;;7.80;2.10;;;19.20;98.70;;;;;;6151955;23;20018;-78
2023/09/20 00:48:01;;;;;;;6.28;2.20;;;19.20;98.70;;;;;;6152522;23;20001;-78
2023/09/20 00:50:31;;;;;;;7.90;1.88;;;19.20;98.70;;;;;;6152030;23;20012;-78
2023/09/20 00:52:57;;;;;;;6.22;2.60;;;19.10;98.70;;;;;;6152584;23;20104;-78
2023/09/20 00:55:28;;;;;;;4.85;2.20;;;19.10;98.70;;;;;;6151479;23;20361;-78
2023/09/20 00:57:59;;;;;;;7.22;2.58;;;19.10;98.80;;;;;;6152028;23;20009;-79
2023/09/20 01:00:27;;;;;;;5.18;1.80;;;19.10;98.80;;;;;;6152187;23;20456;-78
2023/09/20 01:02:55;;;;;;;4.57;1.92;;;19.10;98.90;;;;;;6152339;23;20002;-78
2023/09/20 01:05:21;;;;;;;6.43;1.80;;;19.10;98.90;;;;;;6151838;23;20002;-78
2023/09/20 01:07:51;;;;;;;9.73;1.98;;;19.10;98.90;;;;;;6151898;23;20319;-78
2023/09/20 01:10:23;;;;;;;6.47;1.98;;;19.10;98.90;;;;;;6124561;23;20002;-78
2023/09/20 01:12:56;;;;;;;6.00;1.88;;;19.10;98.90;;;;;;6151917;23;20002;-78
2023/09/20 01:15:22;;;;;;;5.25;2.15;;;19.00;98.90;;;;;;6152010;23;20006;-78
2023/09/20 01:17:49;;;;;;;4.68;1.63;;;19.00;98.90;;;;;;6151654;23;20395;-78
2023/09/20 01:20:19;;;;;;;4.43;1.88;;;18.90;98.90;;;;;;6151605;23;20021;-78
2023/09/20 01:22:50;;;;;;;7.22;2.00;;;18.90;98.90;;;;;;6151580;23;20364;-78
2023/09/20 01:25:39;;;;;;;7.75;1.83;;;18.80;99.00;;;;;;6151992;23;20056;-78
2023/09/20 01:28:08;;;;;;;6.55;1.90;;;18.80;99.00;;;;;;6151860;23;20006;-78
2023/09/20 01:30:36;;;;;;;4.75;2.00;;;18.70;99.10;;;;;;6125405;23;20014;-78
2023/09/20 01:33:05;;;;;;;6.88;2.10;;;18.60;99.20;;;;;;6151934;23;20002;-78
2023/09/20 01:35:31;;;;;;;7.13;2.30;;;18.60;99.20;;;;;;6125497;23;20005;-79
2023/09/20 01:37:58;;;;;;;7.75;2.40;;;18.50;99.30;;;;;;6151226;23;20010;-79
2023/09/20 01:40:26;;;;;;;7.57;2.28;;;18.50;99.30;;;;;;6125377;23;20005;-78
2023/09/20 01:42:52;;;;;;;4.10;1.50;;;18.40;99.40;;;;;;6151586;23;20408;-78
2023/09/20 01:45:19;;;;;;;5.63;2.08;;;18.30;99.50;;;;;;6151379;23;20088;-78
2023/09/20 01:47:50;;;;;;;4.50;1.52;;;18.30;99.50;;;;;;6151737;23;20001;-79
2023/09/20 01:50:20;;;;;;;3.03;1.60;;;18.30;99.60;;;;;;6125188;23;20005;-78
2023/09/20 01:52:49;;;;;;;8.63;1.80;;;18.20;99.70;;;;;;6151206;23;20339;-78
2023/09/20 01:55:18;;;;;;;3.88;1.92;;;18.20;99.80;;;;;;6150585;23;20006;-78
2023/09/20 01:57:45;;;;;;;5.30;2.10;;;18.10;99.80;;;;;;6151368;23;20072;-78
2023/09/20 02:00:37;;;;;;;5.65;1.98;;;18.10;99.90;;;;;;6151468;23;20005;-78
2023/09/20 02:03:19;;;;;;;4.65;1.77;;;18.00;99.90;;;;;;6151596;23;20076;-78
2023/09/20 02:05:48;;;;;;;8.57;2.78;;;18.00;99.90;;;;;;6151422;23;20056;-78
2023/09/20 02:08:15;;;;;;;5.32;1.88;;;18.00;99.90;;;;;;6150582;23;20089;-79
2023/09/20 02:10:41;;;;;;;4.43;1.55;;;17.90;99.90;;;;;;6151367;23;20001;-78
2023/09/20 02:13:07;;;;;;;7.22;2.00;;;17.90;99.90;;;;;;6151344;23;20012;-78
2023/09/20 02:15:34;;;;;;;4.90;2.15;;;17.90;99.90;;;;;;6151133;23;20005;-79
2023/09/20 02:18:03;;;;;;;6.93;2.03;;;17.90;99.90;;;;;;6151541;23;20006;-78
2023/09/20 02:20:33;;;;;;;7.57;2.75;;;17.90;99.90;;;;;;6151441;23;20097;-78
2023/09/20 02:22:59;;;;;;;5.20;1.70;;;17.80;99.90;;;;;;6150884;23;20018;-78
2023/09/20 02:25:26;;;;;;;4.05;2.10;;;17.80;99.90;;;;;;6124859;23;20452;-78
2023/09/20 02:27:59;;;;;;;9.23;2.20;;;17.80;99.90;;;;;;6151132;23;20784;-78
2023/09/20 02:30:28;;;;;;;7.28;1.55;;;17.80;99.90;;;;;;6151456;23;20008;-78
2023/09/20 02:32:57;;;;;;;3.97;1.90;;;17.80;99.90;;;;;;6150795;23;20088;-78
2023/09/20 02:35:25;;;;;;;4.28;2.03;;;17.70;99.90;;;;;;6150517;23;20286;-78
2023/09/20 02:37:51;;;;;;;6.45;1.65;;;17.70;99.90;;;;;;6150752;23;20432;-78
2023/09/20 02:40:23;;;;;;;5.00;1.83;;;17.70;99.90;;;;;;6151077;23;20005;-78
2023/09/20 02:42:54;;;;;;;4.13;1.77;;;17.70;99.90;;;;;;6151130;23;20078;-78
2023/09/20 02:45:20;;;;;;;4.53;1.88;;;17.70;99.90;;;;;;6151033;23;20076;-78
2023/09/20 02:47:47;;;;;;;6.30;1.90;;;17.60;99.90;;;;;;6150905;23;20028;-78
2023/09/20 02:50:16;;;;;;;5.20;2.03;;;17.60;99.90;;;;;;6150673;23;20001;-78
2023/09/20 02:52:44;;;;;;;2.50;1.48;;;17.60;99.90;;;;;;6151272;23;20006;-78
2023/09/20 02:55:12;;;;;;;7.68;2.33;;;17.60;99.90;;;;;;6151448;23;20013;-78
2023/09/20 02:57:39;;;;;;;4.20;1.80;;;17.60;99.90;;;;;;6151124;23;20337;-79
2023/09/20 03:00:51;;;;;;;4.65;1.55;;;17.50;99.90;;;;;;6151022;23;20408;-78
2023/09/20 03:03:00;;;;;;;4.93;2.13;;;17.50;99.90;;;;;;6135168;23;20005;-78
2023/09/20 03:05:28;;;;;;;5.25;1.60;;;17.40;99.90;;;;;;6150073;23;20028;-78
2023/09/20 03:07:55;;;;;;;4.65;1.67;;;17.40;99.90;;;;;;6150945;23;20005;-78
2023/09/20 03:10:22;;;;;;;4.72;2.25;;;17.40;99.90;;;;;;6150956;23;20005;-78
2023/09/20 03:12:51;;;;;;;4.65;1.48;;;17.40;99.90;;;;;;6150779;23;20024;-78
2023/09/20 03:15:21;;;;;;;4.68;2.05;;;17.40;99.90;;;;;;6150668;23;20025;-78
2023/09/20 03:17:50;;;;;;;5.22;1.85;;;17.30;99.90;;;;;;6150661;23;20016;-78
2023/09/20 03:20:22;;;;;;;4.82;1.90;;;17.30;99.90;;;;;;6150326;23;20076;-78
2023/09/20 03:22:51;;;;;;;5.47;2.85;;;17.30;99.90;;;;;;6150652;23;20056;-78
2023/09/20 03:25:19;;;;;;;4.28;1.80;;;17.30;99.90;;;;;;6150800;23;20061;-78
2023/09/20 03:27:45;;;;;;;4.75;1.98;;;17.20;99.90;;;;;;6150494;23;20005;-78
2023/09/20 03:30:13;;;;;;;6.05;2.10;;;17.20;99.90;;;;;;6150759;23;20080;-78
2023/09/20 03:32:44;;;;;;;5.47;2.38;;;17.20;99.90;;;;;;6124285;23;19998;-78
2023/09/20 03:35:12;;;;;;;5.03;1.80;;;17.20;99.90;;;;;;6150507;23;20072;-78
2023/09/20 03:37:38;;;;;;;5.30;1.73;;;17.20;99.90;;;;;;6150385;23;20014;-78
2023/09/20 03:40:06;;;;;;;5.43;2.00;;;17.20;99.90;;;;;;6150943;23;20012;-78
2023/09/20 03:42:33;;;;;;;3.50;1.30;;;17.20;99.90;;;;;;6150406;23;20637;-78
2023/09/20 03:44:58;;;;;;;3.65;1.80;;;17.20;99.90;;;;;;6150567;23;20435;-78
2023/09/20 03:47:28;;;;;;;5.07;1.77;;;17.20;99.90;;;;;;6150312;23;20012;-78
2023/09/20 03:49:53;;;;;;;8.38;2.42;;;17.20;99.90;;;;;;6150427;23;20005;-79
2023/09/20 03:52:19;;;;;;;8.50;2.22;;;17.20;99.90;;;;;;6150311;23;20012;-78
2023/09/20 03:54:51;;;;;;;5.72;2.40;;;17.20;99.90;;;;;;6150482;23;19997;-78
2023/09/20 03:57:19;;;;;;;7.28;1.80;;;17.20;99.90;;;;;;6150279;23;20002;-79
2023/09/20 03:59:47;;;;;;;7.25;2.05;;;17.20;99.90;;;;;;6150100;23;20035;-78
2023/09/20 04:02:14;;;;;;;6.05;2.45;;;17.30;99.90;;;;;;6150432;23;20005;-78
2023/09/20 04:04:40;;;;;;;6.30;1.55;;;17.30;99.90;;;;;;6150063;23;20080;-78
2023/09/20 04:07:06;;;;;;;5.57;2.13;;;17.40;99.90;;;;;;6150647;23;20052;-79
2023/09/20 04:09:32;;;;;;;7.55;2.08;;;17.40;99.90;;;;;;6150202;23;20037;-78
2023/09/20 04:11:59;;;;;;;4.65;1.85;;;17.40;99.90;;;;;;6150704;23;20006;-78
2023/09/20 04:14:25;;;;;;;5.65;1.70;;;17.50;99.90;;;;;;6150573;23;20093;-79
2023/09/20 04:16:52;;;;;;;7.68;2.40;;;17.60;99.90;;;;;;6149887;23;20009;-79
2023/09/20 04:19:21;;;;;;;6.68;2.95;;;17.60;99.90;;;;;;6149434;23;20016;-79
2023/09/20 04:21:47;;;;;;;7.13;2.40;;;17.60;99.90;;;;;;6147813;23;20021;-79
2023/09/20 04:24:13;;;;;;;5.25;2.10;;;17.70;99.90;;;;;;6148309;23;20006;-79
2023/09/20 04:26:39;;;;;;;5.60;2.28;;;17.70;99.90;;;;;;6148184;23;20436;-79
2023/09/20 04:29:04;;;;;;;6.53;2.33;;;17.70;99.90;;;;;;6149066;23;20006;-79
2023/09/20 04:31:32;;;;;;;7.50;2.28;;;17.70;99.90;;;;;;6149903;23;20012;-80
2023/09/20 04:33:58;;;;;;;4.80;2.30;;;17.70;99.90;;;;;;6150532;23;20420;-78
2023/09/20 04:36:23;;;;;;;5.47;2.28;;;17.70;99.90;;;;;;6150264;23;20009;-79
2023/09/20 04:38:50;;;;;;;4.55;1.92;;;17.70;99.90;;;;;;6150039;23;19997;-79
2023/09/20 04:41:15;;;;;;;5.07;2.40;;;17.60;99.90;;;;;;6150535;23;20069;-79
2023/09/20 04:43:41;;;;;;;3.90;2.22;;;17.60;99.90;;;;;;6149995;23;20344;-79
2023/09/20 04:46:07;;;;;;;5.45;1.67;;;17.60;99.90;;;;;;6150347;23;19997;-79
2023/09/20 04:48:33;;;;;;;7.93;2.45;;;17.50;99.90;;;;;;6150153;23;20080;-78
2023/09/20 04:50:59;;;;;;;6.05;2.40;;;17.50;99.90;;;;;;6150159;23;20332;-78
2023/09/20 04:53:25;;;;;;;7.53;2.55;;;17.50;99.90;;;;;;6150264;23;20073;-79
2023/09/20 04:55:51;;;;;;;6.00;2.13;;;17.50;99.90;;;;;;6151167;23;20141;-79
2023/09/20 04:58:20;;;;;;;7.65;2.67;;;17.40;99.90;;;;;;6152068;23;20095;-78
2023/09/20 05:00:46;;;;;;;5.65;2.40;;;17.40;99.90;;;;;;6151420;23;20009;-79
2023/09/20 05:03:15;;;;;;;5.30;2.30;;;17.40;99.90;;;;;;6152090;23;20002;-79
2023/09/20 05:05:41;;;;;;;6.05;1.92;;;17.40;99.90;;;;;;6151703;23;19998;-79
2023/09/20 05:08:08;;;;;;;6.15;2.65;;;17.40;99.90;;;;;;6152247;23;20033;-79
2023/09/20 05:10:34;;;;;;;5.00;2.47;;;17.30;99.90;;;;;;6151386;23;20009;-79
2023/09/20 05:13:00;;;;;;;6.70;1.98;;;17.30;99.90;;;;;;6152083;23;20080;-79
2023/09/20 05:15:26;;;;;;;3.53;1.73;;;17.30;99.90;;;;;;6151451;23;20004;-78
2023/09/20 05:17:51;;;;;;;4.70;2.08;;;17.30;99.90;;;;;;6151391;23;20009;-79
2023/09/20 05:20:17;;;;;;;4.28;2.55;;;17.30;99.90;;;;;;6151200;23;20132;-78
2023/09/20 05:22:42;;;;;;;6.35;2.20;;;17.30;99.90;;;;;;6151618;23;20009;-79
2023/09/20 05:25:09;;;;;;;5.15;1.77;;;17.30;99.90;;;;;;6125584;23;20001;-79
2023/09/20 05:27:35;;;;;;;7.07;2.58;;;17.30;99.90;;;;;;6125292;23;20088;-79
2023/09/20 05:30:01;;;;;;;5.10;1.85;;;17.20;99.90;;;;;;6151147;23;20080;-78
2023/09/20 05:32:27;;;;;;;7.72;2.45;;;17.20;99.90;;;;;;6151493;23;20367;-78
2023/09/20 05:34:53;;;;;;;6.55;2.20;;;17.20;99.90;;;;;;6151752;23;20016;-79
2023/09/20 05:37:18;;;;;;;4.70;2.80;;;17.20;99.90;;;;;;6151307;23;20010;-79
2023/09/20 05:39:47;;;;;;;4.97;1.75;;;17.20;99.90;;;;;;6151566;23;19997;-79
2023/09/20 05:42:16;;;;;;;5.18;2.30;;;17.10;99.90;;;;;;6151608;23;19997;-79
2023/09/20 05:44:41;;;;;;;5.55;2.55;;;17.10;99.90;;;;;;6150721;23;20104;-79
2023/09/20 05:47:10;;;;;;;6.55;2.25;;;17.20;99.90;;;;;;6151804;23;20332;-78
2023/09/20 05:49:35;;;;;;;6.53;2.15;;;17.20;99.90;;;;;;6151663;23;20002;-78
2023/09/20 05:52:05;;;;;;;6.80;2.53;;;17.20;99.90;;;;;;6151365;23;20005;-78
2023/09/20 05:54:31;;;;;;;5.20;2.47;;;17.20;99.90;;;;;;6125302;23;20029;-78
2023/09/20 05:56:59;;;;;;;3.92;2.47;;;17.30;99.90;;;;;;6151471;23;20012;-78
2023/09/20 05:59:25;;;;;;;8.40;2.45;;;17.30;99.90;;;;;;6147875;23;20370;-78
2023/09/20 06:01:51;;;;;;;6.50;2.53;;;17.40;99.90;;;;;;6150187;23;20002;-79
2023/09/20 06:04:18;;;;;;;5.25;2.70;;;17.40;99.90;;;;;;6149487;23;20036;-72
2023/09/20 06:06:44;;;;;;;4.80;2.28;;;17.40;99.90;;;;;;6150014;23;20010;-72
2023/09/20 06:09:10;;;;;;;5.20;2.20;;;17.50;99.90;;;;;;6151174;23;20016;-73
2023/09/20 06:11:36;;;;;;;9.13;2.47;;;17.50;99.90;;;;;;6151289;23;20025;-72
2023/09/20 06:14:04;;;;;;;7.38;2.33;;;17.50;99.90;;;;;;6150390;23;20017;-72
2023/09/20 06:16:30;;;;;;;5.78;2.20;;;17.60;99.90;;;;;;6150714;23;20283;-72
2023/09/20 06:18:55;;;;;;;5.25;2.13;;;17.70;99.90;;;;;;6124700;23;20092;-73
2023/09/20 06:21:21;;;;;;;5.82;2.72;;;17.70;99.90;;;;;;6124428;23;20402;-72
2023/09/20 06:23:46;;;;;;;6.05;2.70;;;17.70;99.90;;;;;;6150654;23;20002;-72
2023/09/20 06:26:12;;;;;;;6.65;2.65;;;17.80;99.90;;;;;;6150614;23;20336;-72
2023/09/20 06:28:41;;;;;;;5.75;2.17;;;18.00;99.90;;;;;;6150137;23;20009;-72
2023/09/20 06:31:15;;;;;;;5.55;2.40;;;18.00;99.90;;;;;;6150720;23;20424;-72
2023/09/20 06:33:44;;;;;;;5.53;2.47;;;18.00;99.90;;;;;;6150934;23;20052;-73
2023/09/20 06:36:17;;;;;;;5.95;2.22;;;18.10;99.90;;;;;;6150952;23;20443;-72
2023/09/20 06:38:42;;;;;;;5.03;2.40;;;18.10;99.90;;;;;;6124991;23;20048;-72
2023/09/20 06:41:08;;;;;;;3.75;2.40;;;18.10;99.90;;;;;;6151071;23;19997;-73
2023/09/20 06:43:33;;;;;;;5.65;2.55;;;18.20;99.90;;;;;;6150272;23;20010;-72
2023/09/20 06:46:03;;;;;;;5.63;2.17;;;18.20;99.90;;;;;;6151125;23;20012;-72
2023/09/20 06:48:29;;;;;;;5.45;2.03;;;18.20;99.90;;;;;;6151219;23;20005;-73
2023/09/20 06:50:55;;;;;;;5.03;2.58;;;18.20;99.90;;;;;;6125078;23;20006;-73
2023/09/20 06:53:23;;;;;;;5.30;2.05;;;18.20;99.90;;;;;;6150908;23;20005;-73
2023/09/20 06:55:50;;;;;;;4.97;2.05;;;18.20;99.90;;;;;;6150391;23;20005;-73
2023/09/20 06:58:16;;;;;;;6.00;2.17;;;18.20;99.90;;;;;;6147321;23;20013;-72
2023/09/20 07:00:42;;;;;;;5.05;2.30;;;18.30;99.90;;;;;;6149605;23;20107;-73
2023/09/20 07:03:08;;;;;;;5.22;2.10;;;18.30;99.90;;;;;;6149104;23;20001;-72
2023/09/20 07:05:34;;;;;;;3.72;2.55;;;18.30;99.90;;;;;;6149870;23;20089;-72
2023/09/20 07:08:00;;;;;;;7.78;2.45;;;18.30;99.90;;;;;;6150039;23;20029;-72
2023/09/20 07:10:28;;;;;;;4.50;1.80;;;18.40;99.90;;;;;;6121826;23;20115;-72
2023/09/20 07:12:54;;;;;;;4.32;1.92;;;18.40;99.90;;;;;;6148367;23;20001;-72
2023/09/20 07:15:21;;;;;;;5.35;2.40;;;18.50;99.90;;;;;;6147909;23;20052;-73
2023/09/20 07:17:58;;;;;;;5.22;1.70;;;18.60;99.90;;;;;;6149325;23;20009;-73
2023/09/20 07:20:28;;;;;;;3.50;2.42;;;18.70;99.90;;;;;;6149290;23;20060;-73
2023/09/20 07:22:54;;;;;;;4.90;2.30;;;18.80;99.90;;;;;;6149452;23;20080;-72
2023/09/20 07:25:21;;;;;;;6.88;1.88;;;18.90;99.90;;;;;;6150059;23;20411;-73
2023/09/20 07:27:47;;;;;;;5.13;2.13;;;19.00;99.90;;;;;;6149022;23;20010;-73
2023/09/20 07:30:17;;;;;;;6.65;2.40;;;19.10;99.90;;;;;;6149729;23;20009;-74
2023/09/20 07:32:44;;;;;;;7.00;2.58;;;19.20;99.90;;;;;;6149515;23;20006;-73
2023/09/20 07:35:26;;;;;;;6.22;2.28;;;19.30;99.90;;;;;;6150586;23;20072;-73
2023/09/20 07:37:58;;;;;;;7.22;1.88;;;19.30;99.90;;;;;;6150207;23;20036;-73
2023/09/20 07:40:30;;;;;;;3.75;1.65;;;19.40;99.90;;;;;;6149707;23;20454;-74
2023/09/20 07:43:07;;;;;;;7.20;2.22;;;19.40;99.90;;;;;;6150412;23;20009;-73
2023/09/20 07:45:38;;;;;;;3.42;1.65;;;19.50;99.90;;;;;;6150088;23;20045;-73
2023/09/20 07:48:16;;;;;;;3.67;2.00;;;19.50;99.90;;;;;;6150416;23;20013;-73
2023/09/20 07:50:50;;;;;;;4.32;1.77;;;19.60;99.90;;;;;;6150537;23;20377;-73
2023/09/20 07:53:20;;;;;;;4.60;2.40;;;19.60;99.90;;;;;;6150546;23;20029;-73
2023/09/20 07:55:57;;;;;;;4.57;1.75;;;19.60;99.90;;;;;;6149503;23;20144;-73
2023/09/20 07:58:23;;;;;;;2.60;1.58;;;19.80;99.90;;;;;;6150108;23;20013;-73
2023/09/20 08:00:55;;;;;;;4.03;1.98;;;19.80;99.90;;;;;;6123999;23;20005;-73
2023/09/20 08:03:22;;;;;;;6.00;1.90;;;19.90;99.90;;;;;;6150309;23;20395;-74
2023/09/20 08:05:52;;;;;;;5.30;1.67;;;20.00;99.90;;;;;;6150105;23;20542;-73
2023/09/20 08:08:18;;;;;;;4.32;1.75;;;20.10;99.90;;;;;;6149663;23;20036;-73
2023/09/20 08:10:44;;;;;;;3.53;1.58;;;20.20;99.90;;;;;;6149651;23;20505;-73
2023/09/20 08:13:11;;;;;;;4.63;1.58;;;20.30;99.90;;;;;;6149921;23;20084;-73
2023/09/20 08:15:46;;;;;;;4.15;2.03;;;20.40;99.90;;;;;;6150176;23;20009;-73
2023/09/20 08:20:59;;;;;;;3.63;1.63;;;20.60;99.90;;;;;;6149972;23;20331;-72
2023/09/20 09:02:16;;;;;;;2.63;1.27;;;20.90;99.00;;;;;;6151695;23;20063;-74
2023/09/20 09:04:46;;;;;;;4.90;1.33;;;20.90;99.00;;;;;;6151256;23;20009;-73
2023/09/20 09:07:12;;;;;;;2.55;1.23;;;20.80;98.80;;;;;;6151136;23;20132;-73
2023/09/20 09:09:39;;;;;;;3.40;1.25;;;20.80;98.90;;;;;;6151802;23;20021;-73
2023/09/20 09:12:05;;;;;;;5.07;2.00;;;20.80;98.90;;;;;;6151764;23;20084;-74
2023/09/20 09:14:35;;;;;;;3.10;1.30;;;20.80;98.90;;;;;;6151714;23;20040;-75
2023/09/20 09:17:02;;;;;;;4.65;1.40;;;20.80;98.80;;;;;;6151988;23;20012;-74
2023/09/20 09:19:28;;;;;;;4.22;1.50;;;20.90;98.80;;;;;;6124519;23;20002;-74
2023/09/20 09:21:54;;;;;;;2.83;1.63;;;21.00;98.60;;;;;;6150911;23;20017;-75
2023/09/20 09:24:20;;;;;;;2.33;1.55;;;21.00;98.50;;;;;;6151683;23;20324;-74
2023/09/20 09:26:46;;;;;;;3.92;1.52;;;21.10;98.50;;;;;;6151610;23;20060;-74
2023/09/20 09:29:19;;;;;;;3.20;1.67;;;21.10;98.30;;;;;;6151548;23;20017;-74
2023/09/20 09:31:51;;;;;;;5.80;1.97;;;21.20;98.10;;;;;;6125499;23;20013;-74
2023/09/20 09:34:21;;;;;;;5.45;1.98;;;21.20;98.10;;;;;;6151634;23;20055;-74
2023/09/20 09:36:47;;;;;;;4.20;1.80;;;21.30;98.10;;;;;;6151222;23;20001;-75
2023/09/20 09:39:14;;;;;;;2.83;1.90;;;21.40;98.00;;;;;;6151297;23;20085;-74
2023/09/20 09:41:44;;;;;;;3.83;1.60;;;21.50;97.90;;;;;;6151267;23;20372;-74
2023/09/20 09:44:10;;;;;;;3.75;1.88;;;21.50;97.60;;;;;;6151269;23;20077;-73
2023/09/20 09:46:38;;;;;;;3.90;2.03;;;21.50;97.60;;;;;;6151329;23;20077;-74
2023/09/20 09:49:16;;;;;;;4.70;2.10;;;21.50;97.70;;;;;;6125485;23;20016;-73
2023/09/20 09:51:45;;;;;;;6.90;2.10;;;21.60;97.60;;;;;;6150733;23;20002;-73
2023/09/20 09:54:12;;;;;;;4.90;2.45;;;21.60;97.70;;;;;;6151241;23;20367;-74
2023/09/20 09:56:39;;;;;;;5.20;2.38;;;21.60;97.60;;;;;;6150772;23;20001;-73
2023/09/20 09:59:05;;;;;;;3.95;1.83;;;21.70;97.60;;;;;;6150549;23;20016;-73
2023/09/20 10:01:36;;;;;;;5.57;2.40;;;21.70;97.50;;;;;;6150419;23;20008;-73
2023/09/20 10:04:13;;;;;;;3.38;2.30;;;21.80;97.30;;;;;;6151376;23;20001;-74
2023/09/20 10:06:44;;;;;;;3.53;2.33;;;21.70;97.20;;;;;;6124423;23;20089;-73
2023/09/20 10:09:11;;;;;;;4.90;2.17;;;21.70;97.20;;;;;;6151440;23;20332;-73
2023/09/20 10:11:38;;;;;;;4.25;2.55;;;21.70;97.20;;;;;;6150988;23;20009;-74
2023/09/20 10:14:09;;;;;;;5.20;2.20;;;21.70;97.20;;;;;;6151144;23;20442;-73
2023/09/20 10:16:36;;;;;;;4.57;2.35;;;21.70;97.30;;;;;;6150685;23;20087;-73
2023/09/20 10:19:02;;;;;;;4.38;2.15;;;21.80;97.10;;;;;;6150574;23;20057;-74
2023/09/20 10:21:30;;;;;;;3.20;1.88;;;21.90;97.00;;;;;;6150817;23;20006;-73
2023/09/20 10:24:02;;;;;;;4.78;2.80;;;22.00;97.00;;;;;;6150798;23;20009;-73
2023/09/20 10:26:32;;;;;;;4.93;2.00;;;22.10;96.90;;;;;;6151281;23;20002;-73
2023/09/20 10:29:24;;;;;;;2.08;1.85;;;22.10;96.70;;;;;;6151302;23;20088;-74
2023/09/20 10:31:52;;;;;;;4.00;2.20;;;22.10;96.60;;;;;;6151046;23;20033;-73
2023/09/20 10:34:21;;;;;;;2.97;1.60;;;22.10;96.70;;;;;;6150183;23;19998;-73
2023/09/20 10:36:53;;;;;;;3.40;2.30;;;22.10;96.80;;;;;;6150932;23;20053;-73
2023/09/20 10:39:19;;;;;;;5.88;2.55;;;22.10;96.70;;;;;;6150189;23;20019;-74
2023/09/20 10:41:46;;;;;;;4.93;2.15;;;22.10;96.70;;;;;;6150884;23;20678;-73
2023/09/20 10:44:35;;;;;;;3.40;2.15;;;22.10;96.70;;;;;;6150697;23;20017;-73
2023/09/20 10:47:14;;;;;;;4.43;1.65;;;22.10;96.70;;;;;;6150139;23;20032;-73
2023/09/20 10:49:52;;;;;;;3.00;2.15;;;22.20;96.80;;;;;;6150442;23;20004;-74
2023/09/20 10:52:32;;;;;;;4.10;1.80;;;22.30;96.70;;;;;;6150359;23;19998;-74
2023/09/20 10:55:20;;;;;;;3.03;1.30;;;22.50;96.60;;;;;;6150273;23;20008;-74
2023/09/20 10:57:46;;;;;;;3.03;1.70;;;22.60;96.30;;;;;;6150558;23;20056;-74
2023/09/20 11:00:22;;;;;;;6.78;2.50;;;22.50;96.30;;;;;;6150813;23;20012;-74
2023/09/20 11:02:52;;;;;;;2.90;1.88;;;22.50;96.30;;;;;;6150901;23;20004;-74
2023/09/20 11:05:18;;;;;;;5.43;2.25;;;22.50;96.30;;;;;;6150694;23;20009;-73
2023/09/20 11:07:44;;;;;;;3.85;1.60;;;22.50;96.20;;;;;;6151198;23;20021;-73
2023/09/20 11:10:17;;;;;;;3.58;1.80;;;22.60;96.20;;;;;;6150766;23;20395;-73
2023/09/20 11:12:43;;;;;;;3.55;2.30;;;22.80;96.20;;;;;;6150819;23;20005;-73
2023/09/20 11:15:10;;;;;;;3.33;1.38;;;22.90;96.10;;;;;;6150689;23;20391;-74
2023/09/20 11:17:36;;;;;;;3.55;1.42;;;23.00;95.80;;;;;;6149409;23;20111;-74
2023/09/20 11:20:06;;;;;;;5.70;1.85;;;23.10;95.60;;;;;;6148891;23;20006;-73
2023/09/20 11:22:32;;;;;;;2.13;1.20;;;23.10;95.50;;;;;;6149401;23;20305;-73
2023/09/20 11:24:57;;;;;;;4.72;1.90;;;23.10;95.50;;;;;;6150010;23;20008;-73
2023/09/20 11:27:24;;;;;;;2.22;1.23;;;23.20;95.40;;;;;;6150508;23;20063;-73
2023/09/20 11:29:49;;;;;;;2.78;1.35;;;23.20;95.30;;;;;;6149799;23;20332;-73
2023/09/20 11:32:21;;;;;;;2.55;1.38;;;23.30;95.20;;;;;;6150407;23;20008;-74
2023/09/20 11:34:49;;;;;;;2.95;1.05;;;23.40;95.10;;;;;;6150410;23;20021;-73
2023/09/20 11:37:19;;;;;;;2.80;1.30;;;23.40;95.20;;;;;;6150415;23;20056;-73
2023/09/20 11:39:54;;;;;;;2.80;1.35;;;23.50;95.00;;;;;;6149995;23;20028;-73
2023/09/20 11:42:36;;;;;;;2.40;1.50;;;23.50;94.60;;;;;;6150236;23;20005;-73
2023/09/20 11:45:10;;;;;;;2.40;1.48;;;23.50;94.60;;;;;;6146310;23;20466;-73
2023/09/20 11:47:42;;;;;;;1.73;1.20;;;23.40;94.50;;;;;;6119574;23;20005;-73
2023/09/20 11:50:14;;;;;;;2.40;1.33;;;23.30;94.60;;;;;;6146893;23;20093;-73
2023/09/20 11:52:47;;;;;;;2.35;0.93;;;23.20;94.80;;;;;;6147142;23;20334;-72
2023/09/20 11:55:14;;;;;;;2.47;1.23;;;23.20;95.00;;;;;;6146689;23;20001;-73
2023/09/20 11:57:46;;;;;;;1.58;1.10;;;23.10;94.80;;;;;;6146759;23;20088;-73
2023/09/20 12:00:25;;;;;;;3.13;1.00;;;23.00;94.70;;;;;;6146451;23;20009;-73
2023/09/20 12:02:51;;;;;;;3.30;1.25;;;23.00;94.90;;;;;;6146172;23;20002;-73
2023/09/20 12:05:19;;;;;;;2.30;1.05;;;23.00;95.00;;;;;;6147651;23;20005;-73
2023/09/20 12:07:56;;;;;;;3.25;1.10;;;23.10;95.10;;;;;;6122785;23;20475;-73
2023/09/20 12:10:21;;;;;;;2.30;1.13;;;23.10;95.00;;;;;;6149058;23;20436;-73
2023/09/20 12:12:48;;;;;;;3.75;1.48;;;23.20;95.00;;;;;;6121918;23;20013;-73
2023/09/20 12:15:14;;;;;;;4.22;1.23;;;23.30;94.90;;;;;;6122104;23;20092;-73
2023/09/20 12:17:39;;;;;;;2.97;0.90;;;23.40;94.70;;;;;;6148221;23;20044;-73
2023/09/20 12:20:06;;;;;;;2.03;0.90;;;23.40;94.60;;;;;;6148627;23;20092;-73
2023/09/20 12:22:32;;;;;;;1.40;0.82;;;23.60;94.60;;;;;;6148649;23;20005;-73
2023/09/20 12:24:58;;;;;;;2.30;1.10;;;23.70;94.50;;;;;;6149214;23;20309;-73
2023/09/20 12:27:24;;;;;;;4.32;1.00;;;23.80;94.40;;;;;;6148325;23;20012;-73
2023/09/20 12:29:50;;;;;;;4.25;1.20;;;23.80;94.20;;;;;;6121805;23;20014;-73
2023/09/20 12:32:15;;;;;;;1.80;0.90;;;23.90;93.90;;;;;;6148451;23;20012;-73
2023/09/20 12:34:41;;;;;;;2.45;0.70;;;23.90;93.80;;;;;;6148159;23;20072;-73
2023/09/20 12:37:07;;;;;;;2.72;1.05;;;23.90;93.80;;;;;;6148635;23;20316;-73
2023/09/20 12:39:36;;;;;;;2.78;1.23;;;23.90;93.60;;;;;;6148801;23;20002;-78
2023/09/20 12:42:02;;;;;;;4.55;1.50;;;23.80;93.40;;;;;;6148508;23;20100;-79
2023/09/20 12:44:27;;;;;;;2.13;1.45;;;23.90;93.40;;;;;;6148119;23;20041;-77
2023/09/20 12:46:54;;;;;;;2.47;1.05;;;23.90;93.30;;;;;;6122171;23;20492;-79
2023/09/20 12:49:19;;;;;;;2.80;1.33;;;23.90;93.00;;;;;;6121871;23;20009;-80
2023/09/20 12:51:45;;;;;;;4.25;1.40;;;23.90;93.00;;;;;;6124139;23;20144;-79
2023/09/20 12:54:10;;;;;;;5.28;1.45;;;23.90;93.00;;;;;;6150509;23;20009;-81
2023/09/20 12:56:38;;;;;;;3.70;1.38;;;23.90;93.10;;;;;;6122231;23;20454;-79
2023/09/20 12:59:03;;;;;;;3.80;1.55;;;23.90;93.10;;;;;;6148766;23;20317;-80
2023/09/20 13:01:32;;;;;;;3.05;1.10;;;23.90;93.10;;;;;;6123219;23;20056;-79
2023/09/20 13:03:57;;;;;;;2.80;1.30;;;23.80;92.90;;;;;;6150988;23;20072;-80
2023/09/20 13:06:25;;;;;;;2.75;1.23;;;23.80;93.00;;;;;;6124799;23;20029;-80
2023/09/20 13:08:51;;;;;;;2.60;1.35;;;23.70;93.20;;;;;;6150811;23;20102;-80
2023/09/20 13:11:17;;;;;;;3.67;1.27;;;23.70;93.20;;;;;;6150701;23;20018;-82
2023/09/20 13:13:42;;;;;;;4.15;1.80;;;23.60;93.10;;;;;;6149936;23;19998;-81
2023/09/20 13:16:12;;;;;;;2.72;1.38;;;23.60;93.00;;;;;;6150758;23;20076;-81
2023/09/20 13:18:38;;;;;;;2.42;1.25;;;23.60;93.10;;;;;;6151485;23;20010;-81
2023/09/20 13:21:04;;;;;;;4.85;1.65;;;23.60;93.00;;;;;;6151258;23;20080;-80
2023/09/20 13:23:30;;;;;;;2.25;1.30;;;23.60;93.10;;;;;;6152174;23;20001;-81
2023/09/20 13:25:56;;;;;;;2.97;1.63;;;23.60;93.00;;;;;;6151405;23;20002;-81
2023/09/20 13:28:22;;;;;;;2.78;1.20;;;23.70;93.00;;;;;;6150950;23;20013;-81
2023/09/20 13:30:48;;;;;;;2.67;1.45;;;23.60;92.90;;;;;;6151377;23;20412;-81
2023/09/20 13:33:14;;;;;;;3.67;1.85;;;23.70;92.90;;;;;;6151786;23;19998;-80
2023/09/20 13:35:40;;;;;;;2.75;1.23;;;23.60;92.70;;;;;;6151667;23;19998;-80